sensor_id;sensor_type;location;lat;lon;timestamp;pressure;altitude;pressure_sealevel;temperature;humidity
67457;BME280;54319;52.038;4.640;2023-11-19T00:02:12;100783.59;;;12.94;100.00
67457;BME280;54319;52.038;4.640;2023-11-19T00:04:38;100774.31;;;12.95;100.00
67457;BME280;54319;52.038;4.640;2023-11-19T00:07:06;100780.25;;;12.92;100.00
67457;BME280;54319;52.038;4.640;2023-11-19T00:09:35;100773.09;;;12.91;100.00
67457;BME280;54319;52.038;4.640;2023-11-19T00:12:02;100780.69;;;12.88;100.00
67457;BME280;54319;52.038;4.640;2023-11-19T00:14:29;100789.94;;;12.87;100.00
67457;BME280;54319;52.038;4.640;2023-11-19T00:16:56;100800.69;;;12.89;100.00
67457;BME280;54319;52.038;4.640;2023-11-19T00:19:22;100812.50;;;12.90;100.00
67457;BME280;54319;52.038;4.640;2023-11-19T00:21:49;100804.09;;;12.84;100.00
67457;BME280;54319;52.038;4.640;2023-11-19T00:24:17;100808.50;;;12.85;100.00
67457;BME280;54319;52.038;4.640;2023-11-19T00:26:43;100797.81;;;12.84;100.00
67457;BME280;54319;52.038;4.640;2023-11-19T00:29:10;100791.47;;;12.83;100.00
67457;BME280;54319;52.038;4.640;2023-11-19T00:31:36;100793.16;;;12.84;100.00
67457;BME280;54319;52.038;4.640;2023-11-19T00:34:03;100787.22;;;12.87;100.00
67457;BME280;54319;52.038;4.640;2023-11-19T00:36:31;100784.94;;;12.84;100.00
67457;BME280;54319;52.038;4.640;2023-11-19T00:38:57;100782.91;;;12.80;100.00
67457;BME280;54319;52.038;4.640;2023-11-19T00:41:25;100784.88;;;12.72;100.00
67457;BME280;54319;52.038;4.640;2023-11-19T00:43:52;100784.28;;;12.70;100.00
67457;BME280;54319;52.038;4.640;2023-11-19T00:46:18;100780.09;;;12.68;100.00
67457;BME280;54319;52.038;4.640;2023-11-19T00:48:45;100778.63;;;12.65;100.00
67457;BME280;54319;52.038;4.640;2023-11-19T00:51:12;100776.13;;;12.64;100.00
67457;BME280;54319;52.038;4.640;2023-11-19T00:53:39;100795.28;;;12.64;100.00
67457;BME280;54319;52.038;4.640;2023-11-19T00:56:06;100781.00;;;12.62;100.00
67457;BME280;54319;52.038;4.640;2023-11-19T00:58:33;100761.00;;;12.61;100.00
67457;BME280;54319;52.038;4.640;2023-11-19T01:01:00;100769.44;;;12.59;100.00
67457;BME280;54319;52.038;4.640;2023-11-19T01:03:26;100768.22;;;12.55;100.00
67457;BME280;54319;52.038;4.640;2023-11-19T01:05:53;100759.16;;;12.55;100.00
67457;BME280;54319;52.038;4.640;2023-11-19T01:08:19;100748.00;;;12.56;100.00
67457;BME280;54319;52.038;4.640;2023-11-19T01:10:45;100740.88;;;12.55;100.00
67457;BME280;54319;52.038;4.640;2023-11-19T01:13:12;100759.16;;;12.55;100.00
67457;BME280;54319;52.038;4.640;2023-11-19T01:15:40;100755.44;;;12.49;100.00
67457;BME280;54319;52.038;4.640;2023-11-19T01:18:07;100747.94;;;12.44;100.00
67457;BME280;54319;52.038;4.640;2023-11-19T01:20:34;100753.84;;;12.41;100.00
67457;BME280;54319;52.038;4.640;2023-11-19T01:23:00;100749.66;;;12.39;100.00
67457;BME280;54319;52.038;4.640;2023-11-19T01:25:27;100749.50;;;12.34;100.00
67457;BME280;54319;52.038;4.640;2023-11-19T01:27:53;100753.16;;;12.27;100.00
67457;BME280;54319;52.038;4.640;2023-11-19T01:30:22;100756.94;;;12.26;100.00
67457;BME280;54319;52.038;4.640;2023-11-19T01:32:50;100762.88;;;12.23;100.00
67457;BME280;54319;52.038;4.640;2023-11-19T01:35:16;100767.56;;;12.16;100.00
67457;BME280;54319;52.038;4.640;2023-11-19T01:37:43;100763.78;;;12.17;100.00
67457;BME280;54319;52.038;4.640;2023-11-19T01:40:10;100760.03;;;12.11;100.00
67457;BME280;54319;52.038;4.640;2023-11-19T01:42:36;100762.81;;;12.05;100.00
67457;BME280;54319;52.038;4.640;2023-11-19T01:45:04;100763.06;;;12.03;100.00
67457;BME280;54319;52.038;4.640;2023-11-19T01:47:33;100763.44;;;12.07;100.00
67457;BME280;54319;52.038;4.640;2023-11-19T01:50:01;100769.75;;;12.07;100.00
67457;BME280;54319;52.038;4.640;2023-11-19T01:52:31;100754.63;;;12.05;100.00
67457;BME280;54319;52.038;4.640;2023-11-19T01:54:58;100757.16;;;11.99;100.00
67457;BME280;54319;52.038;4.640;2023-11-19T01:57:25;100752.59;;;11.93;100.00
67457;BME280;54319;52.038;4.640;2023-11-19T01:59:51;100756.59;;;11.91;100.00
67457;BME280;54319;52.038;4.640;2023-11-19T02:02:18;100755.94;;;11.95;100.00
67457;BME280;54319;52.038;4.640;2023-11-19T02:04:46;100771.56;;;11.88;100.00
67457;BME280;54319;52.038;4.640;2023-11-19T02:07:14;100770.72;;;11.87;100.00
67457;BME280;54319;52.038;4.640;2023-11-19T02:09:42;100793.09;;;11.78;100.00
67457;BME280;54319;52.038;4.640;2023-11-19T02:12:09;100793.13;;;11.71;100.00
67457;BME280;54319;52.038;4.640;2023-11-19T02:14:37;100797.75;;;11.70;100.00
67457;BME280;54319;52.038;4.640;2023-11-19T02:17:03;100797.75;;;11.70;100.00
67457;BME280;54319;52.038;4.640;2023-11-19T02:19:30;100796.69;;;11.71;100.00
67457;BME280;54319;52.038;4.640;2023-11-19T02:21:56;100795.22;;;11.76;100.00
67457;BME280;54319;52.038;4.640;2023-11-19T02:24:24;100788.50;;;11.71;100.00
67457;BME280;54319;52.038;4.640;2023-11-19T02:26:56;100790.81;;;11.75;100.00
67457;BME280;54319;52.038;4.640;2023-11-19T02:29:26;100793.53;;;11.75;100.00
67457;BME280;54319;52.038;4.640;2023-11-19T02:31:52;100790.16;;;11.72;100.00
67457;BME280;54319;52.038;4.640;2023-11-19T02:34:20;100788.72;;;11.70;100.00
67457;BME280;54319;52.038;4.640;2023-11-19T02:36:46;100781.19;;;11.65;100.00
67457;BME280;54319;52.038;4.640;2023-11-19T02:39:13;100778.44;;;11.65;100.00
67457;BME280;54319;52.038;4.640;2023-11-19T02:41:40;100779.34;;;11.59;100.00
67457;BME280;54319;52.038;4.640;2023-11-19T02:44:06;100772.19;;;11.58;100.00
67457;BME280;54319;52.038;4.640;2023-11-19T02:46:34;100782.50;;;11.56;100.00
67457;BME280;54319;52.038;4.640;2023-11-19T02:49:00;100770.75;;;11.55;100.00
67457;BME280;54319;52.038;4.640;2023-11-19T02:51:27;100761.53;;;11.50;100.00
67457;BME280;54319;52.038;4.640;2023-11-19T02:53:53;100753.19;;;11.44;100.00
67457;BME280;54319;52.038;4.640;2023-11-19T02:56:19;100763.03;;;11.46;100.00
67457;BME280;54319;52.038;4.640;2023-11-19T02:58:50;100768.78;;;11.37;100.00
67457;BME280;54319;52.038;4.640;2023-11-19T03:01:21;100768.34;;;11.40;100.00
67457;BME280;54319;52.038;4.640;2023-11-19T03:03:56;100770.00;;;11.41;100.00
67457;BME280;54319;52.038;4.640;2023-11-19T03:06:23;100772.75;;;11.41;100.00
67457;BME280;54319;52.038;4.640;2023-11-19T03:08:50;100761.41;;;11.38;100.00
67457;BME280;54319;52.038;4.640;2023-11-19T03:11:16;100761.84;;;11.35;100.00
67457;BME280;54319;52.038;4.640;2023-11-19T03:13:42;100760.19;;;11.34;100.00
67457;BME280;54319;52.038;4.640;2023-11-19T03:16:09;100769.44;;;11.26;100.00
67457;BME280;54319;52.038;4.640;2023-11-19T03:18:36;100753.91;;;11.26;100.00
67457;BME280;54319;52.038;4.640;2023-11-19T03:21:05;100766.28;;;11.29;100.00
67457;BME280;54319;52.038;4.640;2023-11-19T03:23:32;100741.94;;;11.27;100.00
67457;BME280;54319;52.038;4.640;2023-11-19T03:25:58;100735.00;;;11.25;100.00
67457;BME280;54319;52.038;4.640;2023-11-19T03:28:28;100734.19;;;11.24;100.00
67457;BME280;54319;52.038;4.640;2023-11-19T03:30:54;100736.25;;;11.29;100.00
67457;BME280;54319;52.038;4.640;2023-11-19T03:33:21;100736.47;;;11.27;100.00
67457;BME280;54319;52.038;4.640;2023-11-19T03:35:47;100749.72;;;11.24;100.00
67457;BME280;54319;52.038;4.640;2023-11-19T03:38:15;100750.31;;;11.33;100.00
67457;BME280;54319;52.038;4.640;2023-11-19T03:40:41;100761.44;;;11.31;100.00
67457;BME280;54319;52.038;4.640;2023-11-19T03:43:07;100755.34;;;11.29;100.00
67457;BME280;54319;52.038;4.640;2023-11-19T03:45:34;100764.84;;;11.26;100.00
67457;BME280;54319;52.038;4.640;2023-11-19T03:48:02;100765.28;;;11.23;100.00
67457;BME280;54319;52.038;4.640;2023-11-19T03:50:29;100758.59;;;11.19;100.00
67457;BME280;54319;52.038;4.640;2023-11-19T03:52:55;100763.00;;;11.20;100.00
67457;BME280;54319;52.038;4.640;2023-11-19T03:55:26;100750.19;;;11.14;100.00
67457;BME280;54319;52.038;4.640;2023-11-19T03:57:52;100757.72;;;11.19;100.00
67457;BME280;54319;52.038;4.640;2023-11-19T04:00:19;100757.31;;;11.15;100.00
67457;BME280;54319;52.038;4.640;2023-11-19T04:02:46;100771.81;;;11.15;100.00
67457;BME280;54319;52.038;4.640;2023-11-19T04:05:13;100759.84;;;11.17;100.00
67457;BME280;54319;52.038;4.640;2023-11-19T04:07:39;100784.25;;;11.11;100.00
67457;BME280;54319;52.038;4.640;2023-11-19T04:10:06;100771.22;;;11.13;100.00
67457;BME280;54319;52.038;4.640;2023-11-19T04:12:34;100774.81;;;11.07;100.00
67457;BME280;54319;52.038;4.640;2023-11-19T04:15:01;100778.59;;;11.06;100.00
67457;BME280;54319;52.038;4.640;2023-11-19T04:17:27;100777.97;;;11.04;100.00
67457;BME280;54319;52.038;4.640;2023-11-19T04:19:54;100772.97;;;11.01;100.00
67457;BME280;54319;52.038;4.640;2023-11-19T04:22:20;100761.81;;;11.03;100.00
67457;BME280;54319;52.038;4.640;2023-11-19T04:24:47;100765.81;;;11.00;100.00
67457;BME280;54319;52.038;4.640;2023-11-19T04:27:13;100757.81;;;11.05;100.00
67457;BME280;54319;52.038;4.640;2023-11-19T04:29:41;100761.97;;;11.08;100.00
67457;BME280;54319;52.038;4.640;2023-11-19T04:32:08;100779.59;;;11.12;100.00
67457;BME280;54319;52.038;4.640;2023-11-19T04:34:34;100768.25;;;11.15;100.00
67457;BME280;54319;52.038;4.640;2023-11-19T04:37:01;100780.91;;;11.09;100.00
67457;BME280;54319;52.038;4.640;2023-11-19T04:39:28;100769.97;;;11.09;100.00
67457;BME280;54319;52.038;4.640;2023-11-19T04:41:55;100770.78;;;11.10;100.00
67457;BME280;54319;52.038;4.640;2023-11-19T04:44:21;100770.84;;;11.03;100.00
67457;BME280;54319;52.038;4.640;2023-11-19T04:46:49;100767.44;;;11.08;100.00
67457;BME280;54319;52.038;4.640;2023-11-19T04:49:15;100758.88;;;11.04;100.00
67457;BME280;54319;52.038;4.640;2023-11-19T04:51:42;100771.03;;;11.08;100.00
67457;BME280;54319;52.038;4.640;2023-11-19T04:54:09;100768.69;;;11.12;100.00
67457;BME280;54319;52.038;4.640;2023-11-19T04:56:36;100785.28;;;11.10;100.00
67457;BME280;54319;52.038;4.640;2023-11-19T04:59:02;100776.50;;;11.08;100.00
67457;BME280;54319;52.038;4.640;2023-11-19T05:01:30;100789.69;;;11.11;100.00
67457;BME280;54319;52.038;4.640;2023-11-19T05:03:58;100774.56;;;11.09;100.00
67457;BME280;54319;52.038;4.640;2023-11-19T05:06:26;100773.31;;;11.11;100.00
67457;BME280;54319;52.038;4.640;2023-11-19T05:08:52;100784.84;;;11.13;100.00
67457;BME280;54319;52.038;4.640;2023-11-19T05:11:19;100782.75;;;11.09;100.00
67457;BME280;54319;52.038;4.640;2023-11-19T05:13:45;100774.19;;;11.05;100.00
67457;BME280;54319;52.038;4.640;2023-11-19T05:16:11;100769.59;;;10.99;100.00
67457;BME280;54319;52.038;4.640;2023-11-19T05:18:39;100777.38;;;10.95;100.00
67457;BME280;54319;52.038;4.640;2023-11-19T05:21:07;100782.19;;;11.00;100.00
67457;BME280;54319;52.038;4.640;2023-11-19T05:23:33;100773.38;;;10.98;100.00
67457;BME280;54319;52.038;4.640;2023-11-19T05:26:00;100772.75;;;10.96;100.00
67457;BME280;54319;52.038;4.640;2023-11-19T05:28:27;100786.38;;;10.96;100.00
67457;BME280;54319;52.038;4.640;2023-11-19T05:30:53;100770.44;;;10.93;100.00
67457;BME280;54319;52.038;4.640;2023-11-19T05:33:20;100768.81;;;10.85;100.00
67457;BME280;54319;52.038;4.640;2023-11-19T05:35:47;100784.16;;;10.79;100.00
67457;BME280;54319;52.038;4.640;2023-11-19T05:38:14;100795.06;;;10.86;100.00
67457;BME280;54319;52.038;4.640;2023-11-19T05:40:41;100795.69;;;10.88;100.00
67457;BME280;54319;52.038;4.640;2023-11-19T05:43:08;100791.47;;;10.85;100.00
67457;BME280;54319;52.038;4.640;2023-11-19T05:45:34;100783.09;;;10.87;100.00
67457;BME280;54319;52.038;4.640;2023-11-19T05:48:01;100792.34;;;10.86;100.00
67457;BME280;54319;52.038;4.640;2023-11-19T05:50:29;100789.38;;;10.88;100.00
67457;BME280;54319;52.038;4.640;2023-11-19T05:52:55;100792.53;;;10.84;100.00
67457;BME280;54319;52.038;4.640;2023-11-19T05:55:23;100788.53;;;10.87;100.00
67457;BME280;54319;52.038;4.640;2023-11-19T05:57:51;100789.19;;;10.82;100.00
67457;BME280;54319;52.038;4.640;2023-11-19T06:00:18;100786.88;;;10.79;100.00
67457;BME280;54319;52.038;4.640;2023-11-19T06:02:44;100784.34;;;10.78;100.00
67457;BME280;54319;52.038;4.640;2023-11-19T06:05:10;100777.47;;;10.75;100.00
67457;BME280;54319;52.038;4.640;2023-11-19T06:07:37;100780.81;;;10.77;100.00
67457;BME280;54319;52.038;4.640;2023-11-19T06:10:04;100759.66;;;10.66;100.00
67457;BME280;54319;52.038;4.640;2023-11-19T06:12:33;100771.56;;;10.71;100.00
67457;BME280;54319;52.038;4.640;2023-11-19T06:15:03;100772.19;;;10.74;100.00
67457;BME280;54319;52.038;4.640;2023-11-19T06:17:30;100765.06;;;10.73;100.00
67457;BME280;54319;52.038;4.640;2023-11-19T06:19:56;100759.66;;;10.66;100.00
67457;BME280;54319;52.038;4.640;2023-11-19T06:22:22;100759.84;;;10.64;100.00
67457;BME280;54319;52.038;4.640;2023-11-19T06:24:49;100771.00;;;10.63;100.00
67457;BME280;54319;52.038;4.640;2023-11-19T06:27:15;100782.72;;;10.63;100.00
67457;BME280;54319;52.038;4.640;2023-11-19T06:29:43;100780.63;;;10.72;100.00
67457;BME280;54319;52.038;4.640;2023-11-19T06:32:09;100785.44;;;10.70;100.00
67457;BME280;54319;52.038;4.640;2023-11-19T06:34:36;100794.06;;;10.67;100.00
67457;BME280;54319;52.038;4.640;2023-11-19T06:37:03;100800.34;;;10.67;100.00
67457;BME280;54319;52.038;4.640;2023-11-19T06:39:29;100803.94;;;10.68;100.00
67457;BME280;54319;52.038;4.640;2023-11-19T06:41:55;100803.50;;;10.64;100.00
67457;BME280;54319;52.038;4.640;2023-11-19T06:44:22;100793.88;;;10.62;100.00
67457;BME280;54319;52.038;4.640;2023-11-19T06:46:51;100808.34;;;10.62;100.00
67457;BME280;54319;52.038;4.640;2023-11-19T06:49:18;100802.88;;;10.62;100.00
67457;BME280;54319;52.038;4.640;2023-11-19T06:51:45;100814.66;;;10.63;100.00
67457;BME280;54319;52.038;4.640;2023-11-19T06:54:11;100804.13;;;10.66;100.00
67457;BME280;54319;52.038;4.640;2023-11-19T06:56:38;100824.69;;;10.69;100.00
67457;BME280;54319;52.038;4.640;2023-11-19T06:59:04;100816.69;;;10.81;100.00
67457;BME280;54319;52.038;4.640;2023-11-19T07:01:34;100818.34;;;10.89;100.00
67457;BME280;54319;52.038;4.640;2023-11-19T07:04:02;100819.38;;;10.88;100.00
67457;BME280;54319;52.038;4.640;2023-11-19T07:06:33;100817.50;;;10.88;100.00
67457;BME280;54319;52.038;4.640;2023-11-19T07:08:59;100824.22;;;10.85;100.00
67457;BME280;54319;52.038;4.640;2023-11-19T07:11:31;100813.28;;;10.92;100.00
67457;BME280;54319;52.038;4.640;2023-11-19T07:13:57;100829.44;;;11.00;100.00
67457;BME280;54319;52.038;4.640;2023-11-19T07:16:25;100822.28;;;11.06;100.00
67457;BME280;54319;52.038;4.640;2023-11-19T07:18:52;100825.41;;;11.10;100.00
67457;BME280;54319;52.038;4.640;2023-11-19T07:21:19;100816.78;;;11.13;100.00
67457;BME280;54319;52.038;4.640;2023-11-19T07:23:46;100815.31;;;11.10;100.00
67457;BME280;54319;52.038;4.640;2023-11-19T07:26:13;100810.88;;;11.16;100.00
67457;BME280;54319;52.038;4.640;2023-11-19T07:28:39;100822.47;;;11.11;100.00
67457;BME280;54319;52.038;4.640;2023-11-19T07:31:06;100813.84;;;11.14;100.00
67457;BME280;54319;52.038;4.640;2023-11-19T07:33:33;100813.66;;;11.09;100.00
67457;BME280;54319;52.038;4.640;2023-11-19T07:35:59;100815.97;;;11.06;100.00
67457;BME280;54319;52.038;4.640;2023-11-19T07:38:28;100822.47;;;11.11;100.00
67457;BME280;54319;52.038;4.640;2023-11-19T07:40:55;100828.53;;;11.13;100.00
67457;BME280;54319;52.038;4.640;2023-11-19T07:43:22;100827.91;;;11.11;100.00
67457;BME280;54319;52.038;4.640;2023-11-19T07:45:48;100825.81;;;11.13;100.00
67457;BME280;54319;52.038;4.640;2023-11-19T07:48:15;100821.78;;;11.16;100.00
67457;BME280;54319;52.038;4.640;2023-11-19T07:50:43;100818.41;;;11.21;100.00
67457;BME280;54319;52.038;4.640;2023-11-19T07:53:09;100817.59;;;11.20;100.00
67457;BME280;54319;52.038;4.640;2023-11-19T07:55:38;100816.97;;;11.18;100.00
67457;BME280;54319;52.038;4.640;2023-11-19T07:58:06;100817.38;;;11.22;100.00
67457;BME280;54319;52.038;4.640;2023-11-19T08:00:34;100830.63;;;11.18;100.00
67457;BME280;54319;52.038;4.640;2023-11-19T08:03:01;100820.72;;;11.24;100.00
67457;BME280;54319;52.038;4.640;2023-11-19T08:05:27;100826.78;;;11.26;100.00
67457;BME280;54319;52.038;4.640;2023-11-19T08:07:54;100826.19;;;11.24;100.00
67457;BME280;54319;52.038;4.640;2023-11-19T08:10:22;100844.66;;;11.28;100.00
67457;BME280;54319;52.038;4.640;2023-11-19T08:12:50;100840.00;;;11.29;100.00
67457;BME280;54319;52.038;4.640;2023-11-19T08:15:16;100838.97;;;11.30;100.00
67457;BME280;54319;52.038;4.640;2023-11-19T08:17:43;100842.94;;;11.34;100.00
67457;BME280;54319;52.038;4.640;2023-11-19T08:20:09;100841.47;;;11.38;100.00
67457;BME280;54319;52.038;4.640;2023-11-19T08:22:36;100837.84;;;11.44;100.00
67457;BME280;54319;52.038;4.640;2023-11-19T08:25:03;100837.00;;;11.44;100.00
67457;BME280;54319;52.038;4.640;2023-11-19T08:27:29;100840.78;;;11.50;100.00
67457;BME280;54319;52.038;4.640;2023-11-19T08:29:57;100840.31;;;11.53;100.00
67457;BME280;54319;52.038;4.640;2023-11-19T08:32:24;100841.34;;;11.58;100.00
67457;BME280;54319;52.038;4.640;2023-11-19T08:34:50;100836.06;;;11.64;100.00
67457;BME280;54319;52.038;4.640;2023-11-19T08:37:16;100827.63;;;11.65;100.00
67457;BME280;54319;52.038;4.640;2023-11-19T08:39:46;100845.06;;;11.71;100.00
67457;BME280;54319;52.038;4.640;2023-11-19T08:42:12;100835.16;;;11.77;100.00
67457;BME280;54319;52.038;4.640;2023-11-19T08:44:38;100828.78;;;11.83;100.00
67457;BME280;54319;52.038;4.640;2023-11-19T08:47:09;100841.78;;;11.87;100.00
67457;BME280;54319;52.038;4.640;2023-11-19T08:49:37;100823.88;;;11.92;100.00
67457;BME280;54319;52.038;4.640;2023-11-19T08:52:04;100839.00;;;11.94;100.00
67457;BME280;54319;52.038;4.640;2023-11-19T08:54:32;100835.00;;;11.97;100.00
67457;BME280;54319;52.038;4.640;2023-11-19T08:56:58;100827.88;;;11.96;100.00
67457;BME280;54319;52.038;4.640;2023-11-19T08:59:25;100824.91;;;11.97;100.00
67457;BME280;54319;52.038;4.640;2023-11-19T09:01:52;100832.03;;;11.98;100.00
67457;BME280;54319;52.038;4.640;2023-11-19T09:04:19;100827.81;;;12.02;100.00
67457;BME280;54319;52.038;4.640;2023-11-19T09:06:47;100842.06;;;12.11;100.00
67457;BME280;54319;52.038;4.640;2023-11-19T09:09:13;100829.00;;;12.13;100.00
67457;BME280;54319;52.038;4.640;2023-11-19T09:11:40;100842.84;;;12.19;100.00
67457;BME280;54319;52.038;4.640;2023-11-19T09:14:06;100831.41;;;12.28;100.00
67457;BME280;54319;52.038;4.640;2023-11-19T09:16:33;100835.53;;;12.38;100.00
67457;BME280;54319;52.038;4.640;2023-11-19T09:18:59;100824.75;;;12.43;100.00
67457;BME280;54319;52.038;4.640;2023-11-19T09:21:29;100829.59;;;12.41;100.00
67457;BME280;54319;52.038;4.640;2023-11-19T09:23:55;100831.69;;;12.45;100.00
67457;BME280;54319;52.038;4.640;2023-11-19T09:26:22;100844.34;;;12.40;100.00
67457;BME280;54319;52.038;4.640;2023-11-19T09:28:49;100839.47;;;12.42;100.00
67457;BME280;54319;52.038;4.640;2023-11-19T09:31:16;100828.78;;;12.40;100.00
67457;BME280;54319;52.038;4.640;2023-11-19T09:33:43;100843.28;;;12.41;100.00
67457;BME280;54319;52.038;4.640;2023-11-19T09:36:12;100826.25;;;12.39;100.00
67457;BME280;54319;52.038;4.640;2023-11-19T09:38:40;100830.66;;;12.40;100.00
67457;BME280;54319;52.038;4.640;2023-11-19T09:41:06;100831.44;;;12.47;100.00
67457;BME280;54319;52.038;4.640;2023-11-19T09:43:34;100840.91;;;12.51;100.00
67457;BME280;54319;52.038;4.640;2023-11-19T09:46:01;100830.94;;;12.57;100.00
67457;BME280;54319;52.038;4.640;2023-11-19T09:48:32;100825.41;;;12.64;100.00
67457;BME280;54319;52.038;4.640;2023-11-19T09:50:58;100808.06;;;12.70;100.00
67457;BME280;54319;52.038;4.640;2023-11-19T09:53:25;100829.97;;;12.88;100.00
67457;BME280;54319;52.038;4.640;2023-11-19T09:55:53;100825.00;;;12.97;100.00
67457;BME280;54319;52.038;4.640;2023-11-19T09:58:19;100838.34;;;12.94;100.00
67457;BME280;54319;52.038;4.640;2023-11-19T10:00:46;100840.53;;;12.85;100.00
67457;BME280;54319;52.038;4.640;2023-11-19T10:03:13;100830.19;;;12.87;100.00
67457;BME280;54319;52.038;4.640;2023-11-19T10:05:40;100830.59;;;12.91;100.00
67457;BME280;54319;52.038;4.640;2023-11-19T10:08:06;100822.28;;;12.97;100.00
67457;BME280;54319;52.038;4.640;2023-11-19T10:10:33;100827.38;;;12.94;100.00
67457;BME280;54319;52.038;4.640;2023-11-19T10:13:01;100828.34;;;12.99;100.00
67457;BME280;54319;52.038;4.640;2023-11-19T10:15:28;100822.81;;;13.06;100.00
67457;BME280;54319;52.038;4.640;2023-11-19T10:17:57;100819.59;;;13.09;100.00
67457;BME280;54319;52.038;4.640;2023-11-19T10:20:23;100818.41;;;13.05;100.00
67457;BME280;54319;52.038;4.640;2023-11-19T10:22:52;100821.88;;;13.12;100.00
67457;BME280;54319;52.038;4.640;2023-11-19T10:25:22;100828.81;;;13.15;100.00
67457;BME280;54319;52.038;4.640;2023-11-19T10:27:49;100822.03;;;13.17;100.00
67457;BME280;54319;52.038;4.640;2023-11-19T10:30:18;100825.91;;;13.28;100.00
67457;BME280;54319;52.038;4.640;2023-11-19T10:32:46;100813.28;;;13.27;100.00
67457;BME280;54319;52.038;4.640;2023-11-19T10:35:28;100811.97;;;13.30;100.00
67457;BME280;54319;52.038;4.640;2023-11-19T10:37:54;100813.41;;;13.32;100.00
67457;BME280;54319;52.038;4.640;2023-11-19T10:40:21;100815.47;;;13.37;100.00
67457;BME280;54319;52.038;4.640;2023-11-19T10:42:48;100808.91;;;13.38;100.00
67457;BME280;54319;52.038;4.640;2023-11-19T10:45:22;100804.50;;;13.37;100.00
67457;BME280;54319;52.038;4.640;2023-11-19T10:47:49;100819.13;;;13.31;100.00
67457;BME280;54319;52.038;4.640;2023-11-19T10:50:17;100819.44;;;13.23;100.00
67457;BME280;54319;52.038;4.640;2023-11-19T10:52:44;100816.09;;;13.21;100.00
67457;BME280;54319;52.038;4.640;2023-11-19T10:55:12;100816.41;;;13.31;100.00
67457;BME280;54319;52.038;4.640;2023-11-19T10:57:41;100815.19;;;13.27;100.00
67457;BME280;54319;52.038;4.640;2023-11-19T11:00:10;100818.38;;;13.24;100.00
67457;BME280;54319;52.038;4.640;2023-11-19T11:02:41;100808.94;;;13.20;100.00
67457;BME280;54319;52.038;4.640;2023-11-19T11:05:10;100811.00;;;13.24;100.00
67457;BME280;54319;52.038;4.640;2023-11-19T11:07:38;100803.47;;;13.20;100.00
67457;BME280;54319;52.038;4.640;2023-11-19T11:10:07;100821.28;;;13.29;100.00
67457;BME280;54319;52.038;4.640;2023-11-19T11:12:35;100824.47;;;13.26;100.00
67457;BME280;54319;52.038;4.640;2023-11-19T11:15:02;100811.97;;;13.30;100.00
67457;BME280;54319;52.038;4.640;2023-11-19T11:17:30;100796.28;;;13.37;100.00
67457;BME280;54319;52.038;4.640;2023-11-19T11:19:59;100796.44;;;13.42;100.00
67457;BME280;54319;52.038;4.640;2023-11-19T11:22:26;100803.28;;;13.52;100.00
67457;BME280;54319;52.038;4.640;2023-11-19T11:25:08;100781.53;;;13.38;100.00
67457;BME280;54319;52.038;4.640;2023-11-19T11:30:29;100797.78;;;13.52;100.00
67457;BME280;54319;52.038;4.640;2023-11-19T11:33:02;100799.72;;;13.51;100.00
67457;BME280;54319;52.038;4.640;2023-11-19T11:35:35;100783.72;;;13.48;100.00
67457;BME280;54319;52.038;4.640;2023-11-19T11:38:09;100785.41;;;13.61;100.00
67457;BME280;54319;52.038;4.640;2023-11-19T11:40:35;100779.97;;;13.73;100.00
67457;BME280;54319;52.038;4.640;2023-11-19T11:43:05;100779.75;;;13.74;100.00
67457;BME280;54319;52.038;4.640;2023-11-19T11:45:52;100786.56;;;13.84;100.00
67457;BME280;54319;52.038;4.640;2023-11-19T11:48:19;100779.66;;;13.93;100.00
67457;BME280;54319;52.038;4.640;2023-11-19T11:50:52;100778.34;;;13.96;100.00
67457;BME280;54319;52.038;4.640;2023-11-19T11:53:19;100782.19;;;14.07;100.00
67457;BME280;54319;52.038;4.640;2023-11-19T11:55:57;100774.41;;;14.15;100.00
67457;BME280;54319;52.038;4.640;2023-11-19T11:58:32;100777.03;;;14.10;100.00
67457;BME280;54319;52.038;4.640;2023-11-19T12:00:59;100776.34;;;14.15;100.00
67457;BME280;54319;52.038;4.640;2023-11-19T12:03:27;100759.63;;;14.16;100.00
67457;BME280;54319;52.038;4.640;2023-11-19T12:05:55;100765.97;;;14.17;100.00
67457;BME280;54319;52.038;4.640;2023-11-19T12:08:24;100778.13;;;14.09;100.00
67457;BME280;54319;52.038;4.640;2023-11-19T12:10:51;100802.78;;;13.97;100.00
67457;BME280;54319;52.038;4.640;2023-11-19T12:13:19;100778.94;;;13.86;100.00
67457;BME280;54319;52.038;4.640;2023-11-19T12:18:32;100769.47;;;13.70;100.00
67457;BME280;54319;52.038;4.640;2023-11-19T12:21:00;100766.59;;;13.65;100.00
67457;BME280;54319;52.038;4.640;2023-11-19T12:23:28;100763.22;;;13.51;100.00
67457;BME280;54319;52.038;4.640;2023-11-19T12:25:55;100769.06;;;13.42;100.00
67457;BME280;54319;52.038;4.640;2023-11-19T12:28:22;100761.25;;;13.39;100.00
67457;BME280;54319;52.038;4.640;2023-11-19T12:30:49;100771.84;;;13.36;100.00
67457;BME280;54319;52.038;4.640;2023-11-19T12:33:16;100781.84;;;13.30;100.00
67457;BME280;54319;52.038;4.640;2023-11-19T12:35:43;100781.72;;;13.37;100.00
67457;BME280;54319;52.038;4.640;2023-11-19T12:38:19;100782.34;;;13.39;100.00
67457;BME280;54319;52.038;4.640;2023-11-19T12:40:46;100775.72;;;13.46;100.00
67457;BME280;54319;52.038;4.640;2023-11-19T12:43:20;100773.16;;;13.33;100.00
67457;BME280;54319;52.038;4.640;2023-11-19T12:45:47;100769.81;;;13.31;100.00
67457;BME280;54319;52.038;4.640;2023-11-19T12:48:13;100787.78;;;13.27;100.00